AIRPORT ID: KAPV

DATE: 2021-12-09 ZULU TIME: 0.55 LOCAL TIME: 16.55


METAR KAPV 090055Z AUTO 19009G13KT 10SM 14/03 A2994

ALTIMETER: A2994 Q1014

DENSITY ALT: 3600 Ft

WIND DIRECT: 210

WIND SPEED: 9 Gust

WIND CONDITIONS:

VISIBILTY: 10SM 9999M

TEMPERATURE: 57 F 14 C

DEW POINT: 38 F 3 C

HUMID: 49%

LCL: Above 5,000 feet

RADIO CHECK: 0

ADVISARIES: 4

GREETINGS: 0

CONVERSATIONS: 17